createdAt,value
2019-02-06T00:01:13.318Z,35.00
2019-02-06T00:06:20.786Z,34.00
2019-02-06T00:11:26.331Z,39.25
2019-02-06T00:16:34.097Z,37.11
2019-02-06T00:21:41.470Z,37.00
2019-02-06T00:26:45.739Z,38.50
2019-02-06T00:31:50.667Z,35.00
2019-02-06T00:36:58.480Z,38.89
2019-02-06T00:42:08.777Z,37.00
2019-02-06T00:47:17.087Z,39.00
2019-02-06T00:52:27.891Z,41.00
2019-02-06T00:57:36.030Z,35.00
2019-02-06T01:02:47.207Z,38.89
2019-02-06T01:07:54.323Z,34.63
2019-02-06T01:13:02.767Z,37.00
2019-02-06T01:18:12.665Z,39.00
2019-02-06T01:23:20.844Z,35.11
2019-02-06T01:28:29.196Z,36.67
2019-02-06T01:33:32.675Z,36.00
2019-02-06T01:38:39.443Z,37.00
2019-02-06T01:43:43.743Z,35.00
2019-02-06T01:48:51.088Z,34.78
2019-02-06T01:53:57.873Z,34.00
2019-02-06T01:59:06.119Z,37.56
2019-02-06T02:04:11.246Z,36.75
2019-02-06T02:09:18.431Z,34.00
2019-02-06T02:14:26.718Z,35.44
2019-02-06T02:19:35.847Z,35.67
2019-02-06T02:24:43.364Z,35.11
2019-02-06T02:29:48.431Z,34.43
2019-02-06T02:34:55.212Z,34.63
2019-02-06T02:40:06.626Z,33.00
2019-02-06T02:45:12.742Z,34.00
2019-02-06T02:50:18.423Z,34.00
2019-02-06T02:55:27.557Z,34.75
2019-02-06T03:00:36.007Z,34.13
2019-02-06T03:05:46.008Z,34.00
2019-02-06T03:10:50.972Z,34.43
2019-02-06T03:15:57.596Z,38.38
2019-02-06T03:21:03.230Z,35.00
2019-02-06T03:26:11.687Z,36.75
2019-02-06T03:31:16.693Z,35.14
2019-02-06T03:36:22.493Z,37.25
2019-02-06T03:41:30.825Z,32.13
2019-02-06T03:46:40.738Z,33.00
2019-02-06T03:51:46.387Z,34.00
2019-02-06T03:56:54.863Z,34.88
2019-02-06T04:02:00.950Z,34.00
2019-02-06T04:07:05.291Z,34.00
2019-02-06T04:12:12.864Z,33.00
2019-02-06T04:17:17.926Z,34.71
2019-02-06T04:22:27.198Z,33.38
2019-02-06T04:27:36.414Z,33.25
2019-02-06T04:32:43.780Z,31.22
2019-02-06T04:37:52.022Z,33.00
2019-02-06T04:42:58.699Z,37.56
2019-02-06T04:48:08.744Z,34.00
2019-02-06T04:53:18.051Z,35.38
2019-02-06T04:58:26.159Z,33.33
2019-02-06T05:03:34.335Z,34.78
2019-02-06T05:08:42.724Z,35.00
2019-02-06T05:13:52.660Z,35.00
2019-02-06T05:19:02.699Z,33.63
2019-02-06T05:24:09.810Z,34.33
2019-02-06T05:29:19.685Z,34.56
2019-02-06T05:34:24.639Z,36.50
2019-02-06T05:39:32.537Z,34.00
2019-02-06T05:44:40.797Z,34.22
2019-02-06T05:49:48.854Z,32.67
2019-02-06T05:54:58.802Z,33.00
2019-02-06T06:00:08.595Z,31.44
2019-02-06T06:05:17.474Z,35.25
2019-02-06T06:10:25.051Z,33.75
2019-02-06T06:15:34.301Z,33.50
2019-02-06T06:20:42.501Z,28.67
2019-02-06T06:25:51.759Z,36.25
2019-02-06T06:30:59.282Z,32.50
2019-02-06T06:36:09.422Z,31.00
2019-02-06T06:41:15.448Z,33.75
2019-02-06T06:46:22.893Z,32.75
2019-02-06T06:51:31.181Z,35.67
2019-02-06T06:56:39.435Z,31.78
2019-02-06T07:01:47.818Z,33.00
2019-02-06T07:06:58.775Z,35.58
2019-02-06T07:12:09.635Z,36.00
2019-02-06T07:17:19.535Z,33.44
2019-02-06T07:22:26.982Z,31.00
2019-02-06T07:27:34.496Z,44.67
2019-02-06T07:32:43.775Z,36.00
2019-02-06T07:37:48.082Z,37.00
2019-02-06T07:42:57.322Z,34.56
2019-02-06T07:48:02.660Z,40.00
2019-02-06T07:53:09.150Z,35.38
2019-02-06T07:58:17.410Z,35.44
2019-02-06T08:03:22.387Z,33.75
2019-02-06T08:08:36.153Z,34.44
2019-02-06T08:13:40.609Z,34.67
2019-02-06T08:18:48.869Z,37.22
2019-02-06T08:23:56.296Z,34.00
2019-02-06T08:29:03.874Z,30.62
2019-02-06T08:34:12.082Z,33.00
2019-02-06T08:39:20.589Z,32.33
2019-02-06T08:44:27.984Z,33.88
2019-02-06T08:49:38.170Z,43.89
2019-02-06T08:54:45.635Z,34.88
2019-02-06T08:59:53.174Z,34.38
2019-02-06T09:05:00.704Z,31.75
2019-02-06T09:10:13.215Z,35.00
2019-02-06T09:15:19.308Z,40.38
2019-02-06T09:20:27.702Z,33.22
2019-02-06T09:25:36.092Z,33.63
2019-02-06T09:30:44.699Z,30.00
2019-02-06T09:35:52.894Z,31.78
2019-02-06T09:41:01.261Z,34.00
2019-02-06T09:46:10.495Z,34.25
2019-02-06T09:51:19.341Z,33.00
2019-02-06T09:56:26.902Z,32.75
2019-02-06T10:01:36.118Z,35.25
2019-02-06T10:06:40.422Z,30.75
2019-02-06T10:11:47.220Z,29.00
2019-02-06T10:16:52.176Z,30.75
2019-02-06T10:21:55.320Z,22.67
2019-02-06T10:27:03.411Z,23.75
2019-02-06T10:32:12.314Z,23.38
2019-02-06T10:37:19.619Z,23.00
2019-02-06T10:42:27.115Z,19.87
2019-02-06T10:47:36.066Z,22.00
2019-02-06T10:52:43.159Z,21.75
2019-02-06T10:57:47.773Z,22.00
2019-02-06T11:02:56.800Z,23.62
2019-02-06T11:08:04.142Z,21.75
2019-02-06T11:13:10.962Z,22.00
2019-02-06T11:18:18.169Z,20.00
2019-02-06T11:23:24.846Z,19.50
2019-02-06T11:28:33.722Z,20.25
2019-02-06T11:33:42.426Z,19.37
2019-02-06T11:38:48.746Z,18.37
2019-02-06T11:43:55.922Z,20.00
2019-02-06T11:49:03.548Z,20.00
2019-02-06T11:54:10.235Z,19.37
2019-02-06T11:59:18.154Z,22.00
2019-02-06T12:04:21.317Z,17.25
2019-02-06T12:09:25.759Z,19.50
2019-02-06T12:14:31.826Z,13.00
2019-02-06T12:19:36.151Z,13.00
2019-02-06T12:24:42.270Z,14.38
2019-02-06T12:29:51.682Z,15.90
2019-02-06T12:34:55.301Z,14.75
2019-02-06T12:39:58.670Z,15.67
2019-02-06T12:45:04.077Z,16.00
2019-02-06T12:50:09.785Z,11.43
2019-02-06T12:55:19.521Z,10.14
2019-02-06T13:00:26.230Z,9.00
2019-02-06T13:05:32.255Z,15.57
2019-02-06T13:10:36.963Z,12.75
2019-02-06T13:15:42.642Z,16.86
2019-02-06T13:20:51.199Z,20.80
2019-02-06T13:25:56.023Z,18.37
2019-02-06T13:31:04.376Z,16.75
2019-02-06T13:36:11.463Z,21.12
2019-02-06T13:41:15.028Z,13.80
2019-02-06T13:46:20.291Z,12.00
2019-02-06T13:51:26.169Z,10.14
2019-02-06T13:56:29.728Z,15.00
2019-02-06T14:01:33.226Z,15.00
2019-02-06T14:06:39.134Z,16.00
2019-02-06T14:11:42.678Z,13.00
2019-02-06T14:16:48.227Z,14.29
2019-02-06T14:21:53.713Z,14.25
2019-02-06T14:26:58.545Z,14.00
2019-02-06T14:32:08.613Z,13.00
2019-02-06T14:37:17.273Z,13.00
2019-02-06T14:42:25.262Z,13.50
2019-02-06T14:47:34.557Z,11.00
2019-02-06T14:52:49.242Z,12.00
2019-02-06T14:58:03.018Z,11.25
2019-02-06T15:03:13.836Z,12.50
2019-02-06T15:08:33.539Z,13.13
2019-02-06T15:13:38.447Z,18.00
2019-02-06T15:18:47.415Z,14.00
2019-02-06T15:23:59.491Z,18.25
2019-02-06T15:29:08.632Z,23.00
2019-02-06T15:34:27.018Z,19.00
2019-02-06T15:39:36.747Z,16.62
2019-02-06T15:44:45.065Z,21.50
2019-02-06T15:49:52.287Z,21.87
2019-02-06T15:55:05.545Z,19.00
2019-02-06T16:00:21.909Z,15.38
2019-02-06T16:05:40.622Z,31.00
2019-02-06T16:10:52.071Z,18.00
2019-02-06T16:16:00.287Z,19.12
2019-02-06T16:21:19.190Z,24.00
2019-02-06T16:26:38.777Z,30.12
2019-02-06T16:32:03.880Z,21.50
2019-02-06T16:37:20.305Z,23.00
2019-02-06T16:42:28.802Z,26.75
2019-02-06T16:47:45.113Z,28.00
2019-02-06T16:52:45.946Z,32.00
2019-02-06T16:57:59.044Z,22.56
2019-02-06T17:03:11.931Z,20.25
2019-02-06T17:08:27.550Z,22.00
2019-02-06T17:13:45.111Z,28.25
2019-02-06T17:18:59.698Z,31.00
2019-02-06T17:24:21.351Z,33.00
2019-02-06T17:29:32.742Z,31.75
2019-02-06T17:34:41.372Z,29.87
2019-02-06T17:39:53.477Z,32.13
2019-02-06T17:44:59.010Z,30.75
2019-02-06T17:50:12.411Z,34.00
2019-02-06T17:55:17.411Z,34.50
2019-02-06T18:00:29.277Z,37.88
2019-02-06T18:05:36.991Z,33.22
2019-02-06T18:10:46.060Z,40.89
2019-02-06T18:15:57.070Z,37.40
2019-02-06T18:21:06.018Z,42.22
2019-02-06T18:26:11.007Z,35.00
2019-02-06T18:31:18.715Z,38.67
2019-02-06T18:36:26.338Z,47.00
2019-02-06T18:41:37.160Z,44.00
2019-02-06T18:46:46.375Z,41.00
2019-02-06T18:51:52.143Z,42.43
2019-02-06T18:57:02.166Z,53.33
2019-02-06T19:02:07.548Z,46.86
2019-02-06T19:07:11.810Z,41.00
2019-02-06T19:12:20.210Z,41.22
2019-02-06T19:17:28.626Z,38.00
2019-02-06T19:22:38.995Z,45.50
2019-02-06T19:27:49.118Z,42.77
2019-02-06T19:32:56.671Z,34.50
2019-02-06T19:38:05.157Z,36.89
2019-02-06T19:43:14.860Z,41.00
2019-02-06T19:48:22.521Z,41.00
2019-02-06T19:53:29.931Z,34.13
2019-02-06T19:58:41.008Z,33.00
2019-02-06T20:03:49.162Z,33.00
2019-02-06T20:08:59.235Z,31.89
2019-02-06T20:14:04.240Z,35.00
2019-02-06T20:19:11.765Z,32.75
2019-02-06T20:24:15.241Z,35.00
2019-02-06T20:29:25.294Z,39.11
2019-02-06T20:34:33.582Z,35.22
2019-02-06T20:39:41.717Z,34.11
2019-02-06T20:44:51.538Z,34.00
2019-02-06T20:49:57.287Z,35.00
2019-02-06T20:55:06.670Z,34.78
2019-02-06T21:00:16.266Z,33.00
2019-02-06T21:05:25.580Z,33.78
2019-02-06T21:10:30.398Z,34.33
2019-02-06T21:15:37.649Z,38.00
2019-02-06T21:20:42.374Z,39.25
2019-02-06T21:25:47.170Z,36.25
2019-02-06T21:30:55.499Z,39.75
2019-02-06T21:36:03.695Z,37.38
2019-02-06T21:41:10.060Z,34.25
2019-02-06T21:46:13.126Z,35.00
2019-02-06T21:51:16.452Z,34.00
2019-02-06T21:56:23.897Z,36.38
2019-02-06T22:01:30.656Z,35.00
2019-02-06T22:06:39.120Z,36.88
2019-02-06T22:11:47.536Z,37.67
2019-02-06T22:16:57.449Z,34.11
2019-02-06T22:22:05.711Z,33.00
2019-02-06T22:27:13.134Z,30.12
2019-02-06T22:32:17.054Z,34.00
2019-02-06T22:37:26.139Z,32.11
2019-02-06T22:42:36.042Z,35.00
2019-02-06T22:47:44.942Z,33.88
2019-02-06T22:52:54.883Z,33.00
2019-02-06T22:58:02.225Z,34.00
2019-02-06T23:03:09.717Z,34.25
2019-02-06T23:08:18.543Z,34.25
2019-02-06T23:13:23.658Z,39.86
2019-02-06T23:18:31.525Z,38.78
2019-02-06T23:23:42.499Z,47.00
2019-02-06T23:28:52.844Z,45.10
2019-02-06T23:34:04.742Z,43.00
2019-02-06T23:39:09.955Z,45.00
2019-02-06T23:44:28.547Z,45.40
2019-02-06T23:49:35.111Z,59.53
2019-02-06T23:54:43.930Z,57.80
2019-02-06T23:59:47.706Z,64.00
